Azure — ZCEE2 — position and weather

sailwx.info

Track history (hours):
 
Tides and Currents Weather Stations Pressure Air Temp Water Temp Dewpoint Dewpoint Depression Visibility Wind Speed Wind Dir Waves Ship Positions

Azure

Last reported at 2016-Aug-29 06:32 UTC. Time now 2016-Aug-29 07:16 UTC.
Position N 50°54' W 001°26'.

Length 289 m; draft 8.6 m.

Type: Passenger vessel. MMSI: 310610000.

Date/timePositionNaut miles runAvg speedWind from/ knotsBaromVisibWave heightAir tempDewpointWater temp
2016-Aug-29 06:32N 50°54' W 001°26'0 0.5
2016-Aug-29 05:34N 50°54' W 001°25'8 7.6
2016-Aug-29 04:33N 50°48' W 001°18'1312.7
2016-Aug-29 03:33N 50°43' W 000°60'10 9.8
2016-Aug-29 02:34N 50°33' W 001°01'1212.3
2016-Aug-29 01:32N 50°27' W 001°18'5212.9
2016-Aug-28 21:30N 49°57' W 002°23'1313.7
2016-Aug-28 20:32N 49°52' W 002°43'1313.1
2016-Aug-28 19:33N 49°42' W 002°55'4 0.3
2016-Aug-28 03:07N 49°46' W 002°58'713.2
2016-Aug-28 02:33N 49°53' W 003°01'1110.9
2016-Aug-28 01:33N 49°60' W 002°47'1312.7
2016-Aug-28 00:33N 50°03' W 002°28'1212.4
2016-Aug-27 23:33N 50°08' W 002°11'1212.3
2016-Aug-27 22:33N 50°14' W 001°54'1312.5
2016-Aug-27 21:29N 50°21' W 001°36'1212.7
2016-Aug-27 20:33N 50°27' W 001°20'1313.0
2016-Aug-27 19:33N 50°33' W 001°03'1010.1
2016-Aug-27 18:33N 50°44' W 001°02'1110.8
2016-Aug-27 17:33N 50°48' W 001°17'8 8.1
2016-Aug-27 16:33N 50°54' W 001°26'0 0.3
2016-Aug-27 15:32N 50°54' W 001°26'0 0.0
2016-Aug-27 14:32N 50°54' W 001°26'0 0.0
2016-Aug-27 13:32N 50°54' W 001°26'0 0.0
2016-Aug-27 12:32N 50°54' W 001°26'0 0.0
2016-Aug-27 11:32N 50°54' W 001°26'0 0.0
2016-Aug-27 10:32N 50°54' W 001°26'0 0.0
2016-Aug-27 09:32N 50°54' W 001°26'0 0.0
2016-Aug-27 08:32N 50°54' W 001°26'0 0.0
2016-Aug-27 07:32N 50°54' W 001°26'0 0.0
2016-Aug-27 06:31N 50°54' W 001°26'16 8.3
2016-Aug-27 04:33N 50°45' W 001°05'1616.5
2016-Aug-27 03:34N 50°37' W 000°43'2020.4
2016-Aug-27 02:34N 50°33' W 000°11'2020.4
2016-Aug-27 01:33N 50°34' E 000°21'2221.8
2016-Aug-27 00:33N 50°45' E 000°51'2222.4
2016-Aug-26 23:33N 50°59' E 001°18'2121.5
2016-Aug-26 22:34N 51°13' E 001°44'2020.4
2016-Aug-26 21:34N 51°31' E 001°60'2019.9
2016-Aug-26 20:34N 51°47' E 002°20'1919.3
2016-Aug-26 19:33N 52°03' E 002°36'2020.2
2016-Aug-26 18:34N 52°23' E 002°33'2121.2
2016-Aug-26 17:33N 52°44' E 002°38'2221.7
2016-Aug-26 16:33N 53°06' E 002°37'2221.6
2016-Aug-26 15:33N 53°26' E 002°51'2121.5
2016-Aug-26 14:33N 53°46' E 003°05'2120.9
2016-Aug-26 13:33N 54°03' E 003°24'2137.1
2016-Aug-26 13:00N 54°24' E 003°24'3 6.9 270 / 191016.510.8 0.517.513.117.0
2016-Aug-26 12:33N 54°23' E 003°29'23618.8
2016-Aug-26 00:00N 58°18' E 003°54'162 7.4 050 / 101013.710.8 0.515.013.215.0
2016-Aug-25 02:00N 61°00' E 004°12'42 0.9 360 / 121020.410.8 0.515.011.316.0
2016-Aug-23 02:00N 61°42' E 004°18'10615.9 310 / 61020.710.8 17.415.015.0
2016-Aug-22 19:19N 59°56' E 004°34'1317.4
2016-Aug-22 18:33N 59°43' E 004°37'1717.1
2016-Aug-22 17:34N 59°27' E 004°50'1918.6
2016-Aug-22 16:33N 59°10' E 005°04'1514.6
2016-Aug-22 15:33N 59°06' E 005°31'10 9.8
2016-Aug-22 14:32N 58°58' E 005°44'0 0.0
2016-Aug-22 13:32N 58°58' E 005°44'0 0.0
2016-Aug-22 12:32N 58°58' E 005°44'0 0.0
2016-Aug-22 11:32N 58°58' E 005°44'0 0.0
2016-Aug-22 10:32N 58°58' E 005°44'0 0.0
2016-Aug-22 09:29N 58°58' E 005°44'0 0.0
2016-Aug-22 08:32N 58°58' E 005°44'0 0.0
2016-Aug-22 07:32N 58°58' E 005°44'0 0.0
2016-Aug-22 06:32N 58°58' E 005°44'0 0.3
2016-Aug-22 05:33N 58°59' E 005°44'6 5.8
2016-Aug-22 04:33N 59°00' E 005°33'1515.1
2016-Aug-22 03:34N 58°46' E 005°23'1918.6
2016-Aug-22 02:34N 58°28' E 005°12'1830.9
2016-Aug-22 02:00N 58°12' E 005°00'19317.8 160 / 171011.6 5.4 1.019.018.216.0
2016-Aug-21 15:08N 55°01' E 004°07'1118.2
2016-Aug-21 14:33N 54°51' E 004°04'1818.2
2016-Aug-21 13:33N 54°33' E 003°58'2717.6
2016-Aug-21 12:00N 54°06' E 003°48'6516.2 270 / 281010.310.8 1.018.614.518.0
2016-Aug-21 08:00N 53°12' E 002°48'8418.9 270 / 371007.910.8 18.0 18.0
2016-Aug-21 03:34N 51°49' E 002°38'2020.0
2016-Aug-21 02:33N 51°33' E 002°18'1919.0
2016-Aug-21 01:34N 51°15' E 002°06'2120.7
2016-Aug-21 00:33N 51°03' E 001°39'2020.1
2016-Aug-20 23:34N 50°47' E 001°22'4019.2
2016-Aug-20 21:29N 50°26' E 000°28'1820.0
2016-Aug-20 20:34N 50°22' W 000°01'1918.8
2016-Aug-20 19:34N 50°31' W 000°27'1817.6
2016-Aug-20 18:34N 50°38' W 000°53'1312.9
2016-Aug-20 17:33N 50°46' W 001°09'1211.6
2016-Aug-20 16:33N 50°53' W 001°23'2 2.2
2016-Aug-20 15:30N 50°54' W 001°26'0 0.0
2016-Aug-20 14:33N 50°54' W 001°26'0 0.0
2016-Aug-20 13:33N 50°54' W 001°26'0 0.0
2016-Aug-20 12:33N 50°54' W 001°26'0 0.0
2016-Aug-20 11:33N 50°54' W 001°26'0 0.0
2016-Aug-20 10:33N 50°54' W 001°26'0 0.0
2016-Aug-20 09:33N 50°54' W 001°26'0 0.0
2016-Aug-20 08:30N 50°54' W 001°26'0 0.0
2016-Aug-20 07:33N 50°54' W 001°26'0 0.0
2016-Aug-20 06:33N 50°54' W 001°26'0 0.0
2016-Aug-20 05:33N 50°54' W 001°26'0 0.0
2016-Aug-20 04:33N 50°54' W 001°26'0 0.1
2016-Aug-20 03:33N 50°54' W 001°26'8 8.4
2016-Aug-20 02:34N 50°47' W 001°19'1514.5
2016-Aug-20 01:33N 50°41' W 000°58'8 8.2
2016-Aug-20 00:34N 50°33' W 001°02'1717.4
2016-Aug-19 23:34N 50°27' W 001°28'6019.9
2016-Aug-19 20:34N 49°53' W 002°44'2120.9
2016-Aug-19 19:33N 49°42' W 003°12'6621.0
2016-Aug-19 16:26N 49°01' W 004°31'1921.4
2016-Aug-19 15:34N 48°49' W 004°53'2121.4
2016-Aug-19 14:34N 48°36' W 005°18'  
Track history (hours):
 
Tides and Currents Weather Stations Pressure Air Temp Water Temp Dewpoint Dewpoint Depression Visibility Wind Speed Wind Dir Waves Ship Positions

Azure

Last reported at 2016-Aug-29 06:32 UTC. Time now 2016-Aug-29 07:16 UTC.
Position N 50°54' W 001°26'.

Length 289 m; draft 8.6 m.

Type: Passenger vessel. MMSI: 310610000.

Date/timePositionNaut miles runAvg speedWind from/ knotsBaromVisibWave heightAir tempDewpointWater temp
2016-Aug-29 06:32N 50°54' W 001°26'0 0.5
2016-Aug-29 05:34N 50°54' W 001°25'8 7.6
2016-Aug-29 04:33N 50°48' W 001°18'1312.7
2016-Aug-29 03:33N 50°43' W 000°60'10 9.8
2016-Aug-29 02:34N 50°33' W 001°01'1212.3
2016-Aug-29 01:32N 50°27' W 001°18'5212.9
2016-Aug-28 21:30N 49°57' W 002°23'1313.7
2016-Aug-28 20:32N 49°52' W 002°43'1313.1
2016-Aug-28 19:33N 49°42' W 002°55'4 0.3
2016-Aug-28 03:07N 49°46' W 002°58'713.2
2016-Aug-28 02:33N 49°53' W 003°01'1110.9
2016-Aug-28 01:33N 49°60' W 002°47'1312.7
2016-Aug-28 00:33N 50°03' W 002°28'1212.4
2016-Aug-27 23:33N 50°08' W 002°11'1212.3
2016-Aug-27 22:33N 50°14' W 001°54'1312.5
2016-Aug-27 21:29N 50°21' W 001°36'1212.7
2016-Aug-27 20:33N 50°27' W 001°20'1313.0
2016-Aug-27 19:33N 50°33' W 001°03'1010.1
2016-Aug-27 18:33N 50°44' W 001°02'1110.8
2016-Aug-27 17:33N 50°48' W 001°17'8 8.1
2016-Aug-27 16:33N 50°54' W 001°26'0 0.3
2016-Aug-27 15:32N 50°54' W 001°26'0 0.0
2016-Aug-27 14:32N 50°54' W 001°26'0 0.0
2016-Aug-27 13:32N 50°54' W 001°26'0 0.0
2016-Aug-27 12:32N 50°54' W 001°26'0 0.0
2016-Aug-27 11:32N 50°54' W 001°26'0 0.0
2016-Aug-27 10:32N 50°54' W 001°26'0 0.0
2016-Aug-27 09:32N 50°54' W 001°26'0 0.0
2016-Aug-27 08:32N 50°54' W 001°26'0 0.0
2016-Aug-27 07:32N 50°54' W 001°26'0 0.0
2016-Aug-27 06:31N 50°54' W 001°26'16 8.3
2016-Aug-27 04:33N 50°45' W 001°05'1616.5
2016-Aug-27 03:34N 50°37' W 000°43'2020.4
2016-Aug-27 02:34N 50°33' W 000°11'2020.4
2016-Aug-27 01:33N 50°34' E 000°21'2221.8
2016-Aug-27 00:33N 50°45' E 000°51'2222.4
2016-Aug-26 23:33N 50°59' E 001°18'2121.5
2016-Aug-26 22:34N 51°13' E 001°44'2020.4
2016-Aug-26 21:34N 51°31' E 001°60'2019.9
2016-Aug-26 20:34N 51°47' E 002°20'1919.3
2016-Aug-26 19:33N 52°03' E 002°36'2020.2
2016-Aug-26 18:34N 52°23' E 002°33'2121.2
2016-Aug-26 17:33N 52°44' E 002°38'2221.7
2016-Aug-26 16:33N 53°06' E 002°37'2221.6
2016-Aug-26 15:33N 53°26' E 002°51'2121.5
2016-Aug-26 14:33N 53°46' E 003°05'2120.9
2016-Aug-26 13:33N 54°03' E 003°24'2137.1
2016-Aug-26 13:00N 54°24' E 003°24'3 6.9 270 / 191016.510.8 0.517.513.117.0
2016-Aug-26 12:33N 54°23' E 003°29'23618.8
2016-Aug-26 00:00N 58°18' E 003°54'162 7.4 050 / 101013.710.8 0.515.013.215.0
2016-Aug-25 02:00N 61°00' E 004°12'42 0.9 360 / 121020.410.8 0.515.011.316.0
2016-Aug-23 02:00N 61°42' E 004°18'10615.9 310 / 61020.710.8 17.415.015.0
2016-Aug-22 19:19N 59°56' E 004°34'1317.4
2016-Aug-22 18:33N 59°43' E 004°37'1717.1
2016-Aug-22 17:34N 59°27' E 004°50'1918.6
2016-Aug-22 16:33N 59°10' E 005°04'1514.6
2016-Aug-22 15:33N 59°06' E 005°31'10 9.8
2016-Aug-22 14:32N 58°58' E 005°44'0 0.0
2016-Aug-22 13:32N 58°58' E 005°44'0 0.0
2016-Aug-22 12:32N 58°58' E 005°44'0 0.0
2016-Aug-22 11:32N 58°58' E 005°44'0 0.0
2016-Aug-22 10:32N 58°58' E 005°44'0 0.0
2016-Aug-22 09:29N 58°58' E 005°44'0 0.0
2016-Aug-22 08:32N 58°58' E 005°44'0 0.0
2016-Aug-22 07:32N 58°58' E 005°44'0 0.0
2016-Aug-22 06:32N 58°58' E 005°44'0 0.3
2016-Aug-22 05:33N 58°59' E 005°44'6 5.8
2016-Aug-22 04:33N 59°00' E 005°33'1515.1
2016-Aug-22 03:34N 58°46' E 005°23'1918.6
2016-Aug-22 02:34N 58°28' E 005°12'1830.9
2016-Aug-22 02:00N 58°12' E 005°00'19317.8 160 / 171011.6 5.4 1.019.018.216.0
2016-Aug-21 15:08N 55°01' E 004°07'1118.2
2016-Aug-21 14:33N 54°51' E 004°04'1818.2
2016-Aug-21 13:33N 54°33' E 003°58'2717.6
2016-Aug-21 12:00N 54°06' E 003°48'6516.2 270 / 281010.310.8 1.018.614.518.0
2016-Aug-21 08:00N 53°12' E 002°48'8418.9 270 / 371007.910.8 18.0 18.0
2016-Aug-21 03:34N 51°49' E 002°38'2020.0
2016-Aug-21 02:33N 51°33' E 002°18'1919.0
2016-Aug-21 01:34N 51°15' E 002°06'2120.7
2016-Aug-21 00:33N 51°03' E 001°39'2020.1
2016-Aug-20 23:34N 50°47' E 001°22'4019.2
2016-Aug-20 21:29N 50°26' E 000°28'1820.0
2016-Aug-20 20:34N 50°22' W 000°01'1918.8
2016-Aug-20 19:34N 50°31' W 000°27'1817.6
2016-Aug-20 18:34N 50°38' W 000°53'1312.9
2016-Aug-20 17:33N 50°46' W 001°09'1211.6
2016-Aug-20 16:33N 50°53' W 001°23'2 2.2
2016-Aug-20 15:30N 50°54' W 001°26'0 0.0
2016-Aug-20 14:33N 50°54' W 001°26'0 0.0
2016-Aug-20 13:33N 50°54' W 001°26'0 0.0
2016-Aug-20 12:33N 50°54' W 001°26'0 0.0
2016-Aug-20 11:33N 50°54' W 001°26'0 0.0
2016-Aug-20 10:33N 50°54' W 001°26'0 0.0
2016-Aug-20 09:33N 50°54' W 001°26'0 0.0
2016-Aug-20 08:30N 50°54' W 001°26'0 0.0
2016-Aug-20 07:33N 50°54' W 001°26'0 0.0
2016-Aug-20 06:33N 50°54' W 001°26'0 0.0
2016-Aug-20 05:33N 50°54' W 001°26'0 0.0
2016-Aug-20 04:33N 50°54' W 001°26'0 0.1
2016-Aug-20 03:33N 50°54' W 001°26'8 8.4
2016-Aug-20 02:34N 50°47' W 001°19'1514.5
2016-Aug-20 01:33N 50°41' W 000°58'8 8.2
2016-Aug-20 00:34N 50°33' W 001°02'1717.4
2016-Aug-19 23:34N 50°27' W 001°28'6019.9
2016-Aug-19 20:34N 49°53' W 002°44'2120.9
2016-Aug-19 19:33N 49°42' W 003°12'6621.0
2016-Aug-19 16:26N 49°01' W 004°31'1921.4
2016-Aug-19 15:34N 48°49' W 004°53'2121.4
2016-Aug-19 14:34N 48°36' W 005°18'  

Dump ship's entire track history